sensor_id;sensor_type;location;lat;lon;timestamp;temperature;humidity
3086;DHT22;52812;48.960;9.108;2023-07-29T00:01:41;16.70;99.90
3086;DHT22;52812;48.960;9.108;2023-07-29T00:04:07;16.70;99.90
3086;DHT22;52812;48.960;9.108;2023-07-29T00:06:34;16.70;99.90
3086;DHT22;52812;48.960;9.108;2023-07-29T00:09:00;16.80;99.90
3086;DHT22;52812;48.960;9.108;2023-07-29T00:11:26;16.80;99.90
3086;DHT22;52812;48.960;9.108;2023-07-29T00:13:51;16.80;99.90
3086;DHT22;52812;48.960;9.108;2023-07-29T00:16:18;16.80;99.90
3086;DHT22;52812;48.960;9.108;2023-07-29T00:18:47;16.80;99.90
3086;DHT22;52812;48.960;9.108;2023-07-29T00:21:13;16.90;99.90
3086;DHT22;52812;48.960;9.108;2023-07-29T00:23:38;16.90;99.90
3086;DHT22;52812;48.960;9.108;2023-07-29T00:26:04;16.90;99.90
3086;DHT22;52812;48.960;9.108;2023-07-29T00:28:29;16.90;99.90
3086;DHT22;52812;48.960;9.108;2023-07-29T00:30:55;17.00;99.90
3086;DHT22;52812;48.960;9.108;2023-07-29T00:33:21;17.00;99.90
3086;DHT22;52812;48.960;9.108;2023-07-29T00:35:46;17.00;99.90
3086;DHT22;52812;48.960;9.108;2023-07-29T00:38:12;17.00;99.90
3086;DHT22;52812;48.960;9.108;2023-07-29T00:40:37;17.00;99.90
3086;DHT22;52812;48.960;9.108;2023-07-29T00:43:03;17.00;99.90
3086;DHT22;52812;48.960;9.108;2023-07-29T00:45:29;17.00;99.90
3086;DHT22;52812;48.960;9.108;2023-07-29T00:47:55;17.00;99.90
3086;DHT22;52812;48.960;9.108;2023-07-29T00:50:21;17.00;99.90
3086;DHT22;52812;48.960;9.108;2023-07-29T00:52:48;17.10;99.90
3086;DHT22;52812;48.960;9.108;2023-07-29T00:55:14;17.00;99.90
3086;DHT22;52812;48.960;9.108;2023-07-29T00:57:40;16.90;99.90
3086;DHT22;52812;48.960;9.108;2023-07-29T01:00:07;17.00;99.90
3086;DHT22;52812;48.960;9.108;2023-07-29T01:02:34;17.00;99.90
3086;DHT22;52812;48.960;9.108;2023-07-29T01:05:03;17.00;99.90
3086;DHT22;52812;48.960;9.108;2023-07-29T01:07:39;17.00;99.90
3086;DHT22;52812;48.960;9.108;2023-07-29T01:10:30;17.00;99.90
3086;DHT22;52812;48.960;9.108;2023-07-29T01:15:56;17.00;99.90
3086;DHT22;52812;48.960;9.108;2023-07-29T01:18:30;17.00;99.90
3086;DHT22;52812;48.960;9.108;2023-07-29T01:21:03;17.00;99.90
3086;DHT22;52812;48.960;9.108;2023-07-29T01:23:33;17.00;99.90
3086;DHT22;52812;48.960;9.108;2023-07-29T01:25:59;17.10;99.90
3086;DHT22;52812;48.960;9.108;2023-07-29T01:28:26;17.10;99.90
3086;DHT22;52812;48.960;9.108;2023-07-29T01:30:57;17.10;99.90
3086;DHT22;52812;48.960;9.108;2023-07-29T01:33:26;17.10;99.90
3086;DHT22;52812;48.960;9.108;2023-07-29T01:36:02;17.10;99.90
3086;DHT22;52812;48.960;9.108;2023-07-29T01:38:33;17.10;99.90
3086;DHT22;52812;48.960;9.108;2023-07-29T01:41:06;17.10;99.90
3086;DHT22;52812;48.960;9.108;2023-07-29T01:43:33;17.10;99.90
3086;DHT22;52812;48.960;9.108;2023-07-29T01:46:00;17.10;99.90
3086;DHT22;52812;48.960;9.108;2023-07-29T01:48:26;17.10;99.90
3086;DHT22;52812;48.960;9.108;2023-07-29T01:50:53;17.10;99.90
3086;DHT22;52812;48.960;9.108;2023-07-29T01:53:18;17.10;99.90
3086;DHT22;52812;48.960;9.108;2023-07-29T01:55:44;17.10;99.90
3086;DHT22;52812;48.960;9.108;2023-07-29T01:58:10;17.10;99.90
3086;DHT22;52812;48.960;9.108;2023-07-29T02:00:36;17.10;99.90
3086;DHT22;52812;48.960;9.108;2023-07-29T02:03:02;17.10;99.90
3086;DHT22;52812;48.960;9.108;2023-07-29T02:05:27;17.10;99.90
3086;DHT22;52812;48.960;9.108;2023-07-29T02:07:53;17.20;99.90
3086;DHT22;52812;48.960;9.108;2023-07-29T02:10:18;17.20;99.90
3086;DHT22;52812;48.960;9.108;2023-07-29T02:12:44;17.10;99.90
3086;DHT22;52812;48.960;9.108;2023-07-29T02:15:10;17.10;99.90
3086;DHT22;52812;48.960;9.108;2023-07-29T02:17:36;17.20;99.90
3086;DHT22;52812;48.960;9.108;2023-07-29T02:20:02;17.10;99.90
3086;DHT22;52812;48.960;9.108;2023-07-29T02:22:29;17.00;99.90
3086;DHT22;52812;48.960;9.108;2023-07-29T02:24:54;17.00;99.90
3086;DHT22;52812;48.960;9.108;2023-07-29T02:27:20;17.10;99.90
3086;DHT22;52812;48.960;9.108;2023-07-29T02:29:46;17.00;99.90
3086;DHT22;52812;48.960;9.108;2023-07-29T02:32:11;17.00;99.90
3086;DHT22;52812;48.960;9.108;2023-07-29T02:34:37;17.00;99.90
3086;DHT22;52812;48.960;9.108;2023-07-29T02:37:03;17.00;99.90
3086;DHT22;52812;48.960;9.108;2023-07-29T02:39:28;17.00;99.90
3086;DHT22;52812;48.960;9.108;2023-07-29T02:41:54;17.00;99.90
3086;DHT22;52812;48.960;9.108;2023-07-29T02:44:21;17.00;99.90
3086;DHT22;52812;48.960;9.108;2023-07-29T02:46:46;17.00;99.90
3086;DHT22;52812;48.960;9.108;2023-07-29T02:49:12;17.00;99.90
3086;DHT22;52812;48.960;9.108;2023-07-29T02:51:37;17.00;99.90
3086;DHT22;52812;48.960;9.108;2023-07-29T02:54:03;17.00;99.90
3086;DHT22;52812;48.960;9.108;2023-07-29T02:56:28;16.90;99.90
3086;DHT22;52812;48.960;9.108;2023-07-29T02:58:56;16.90;99.90
3086;DHT22;52812;48.960;9.108;2023-07-29T03:01:22;16.80;99.90
3086;DHT22;52812;48.960;9.108;2023-07-29T03:03:48;16.80;99.90
3086;DHT22;52812;48.960;9.108;2023-07-29T03:06:14;16.80;99.90
3086;DHT22;52812;48.960;9.108;2023-07-29T03:08:40;16.80;99.90
3086;DHT22;52812;48.960;9.108;2023-07-29T03:11:10;16.80;99.90
3086;DHT22;52812;48.960;9.108;2023-07-29T03:13:36;16.80;99.90
3086;DHT22;52812;48.960;9.108;2023-07-29T03:16:15;16.90;99.90
3086;DHT22;52812;48.960;9.108;2023-07-29T03:18:42;16.90;99.90
3086;DHT22;52812;48.960;9.108;2023-07-29T03:21:09;16.90;99.90
3086;DHT22;52812;48.960;9.108;2023-07-29T03:23:35;16.90;99.90
3086;DHT22;52812;48.960;9.108;2023-07-29T03:26:02;16.80;99.90
3086;DHT22;52812;48.960;9.108;2023-07-29T03:28:31;16.80;99.90
3086;DHT22;52812;48.960;9.108;2023-07-29T03:30:57;16.80;99.90
3086;DHT22;52812;48.960;9.108;2023-07-29T03:33:25;16.80;99.90
3086;DHT22;52812;48.960;9.108;2023-07-29T03:35:51;16.80;99.90
3086;DHT22;52812;48.960;9.108;2023-07-29T03:38:16;16.80;99.90
3086;DHT22;52812;48.960;9.108;2023-07-29T03:40:42;16.80;99.90
3086;DHT22;52812;48.960;9.108;2023-07-29T03:43:08;16.80;99.90
3086;DHT22;52812;48.960;9.108;2023-07-29T03:45:35;16.90;99.90
3086;DHT22;52812;48.960;9.108;2023-07-29T03:48:01;16.80;99.90
3086;DHT22;52812;48.960;9.108;2023-07-29T03:50:27;16.80;99.90
3086;DHT22;52812;48.960;9.108;2023-07-29T03:52:53;16.90;99.90
3086;DHT22;52812;48.960;9.108;2023-07-29T03:55:18;16.90;99.90
3086;DHT22;52812;48.960;9.108;2023-07-29T03:57:44;16.90;99.90
3086;DHT22;52812;48.960;9.108;2023-07-29T04:00:10;16.90;99.90
3086;DHT22;52812;48.960;9.108;2023-07-29T04:02:36;17.00;99.90
3086;DHT22;52812;48.960;9.108;2023-07-29T04:05:05;17.00;99.90
3086;DHT22;52812;48.960;9.108;2023-07-29T04:07:32;17.00;99.90
3086;DHT22;52812;48.960;9.108;2023-07-29T04:09:57;17.00;99.90
3086;DHT22;52812;48.960;9.108;2023-07-29T04:12:24;17.00;99.90
3086;DHT22;52812;48.960;9.108;2023-07-29T04:14:50;17.00;99.90
3086;DHT22;52812;48.960;9.108;2023-07-29T04:17:15;17.00;99.90
3086;DHT22;52812;48.960;9.108;2023-07-29T04:19:41;17.00;99.90
3086;DHT22;52812;48.960;9.108;2023-07-29T04:22:06;17.00;99.90
3086;DHT22;52812;48.960;9.108;2023-07-29T04:24:32;17.00;99.90
3086;DHT22;52812;48.960;9.108;2023-07-29T04:26:57;17.00;99.90
3086;DHT22;52812;48.960;9.108;2023-07-29T04:29:23;17.00;99.90
3086;DHT22;52812;48.960;9.108;2023-07-29T04:31:52;17.00;99.90
3086;DHT22;52812;48.960;9.108;2023-07-29T04:34:18;17.10;99.90
3086;DHT22;52812;48.960;9.108;2023-07-29T04:36:45;17.10;99.90
3086;DHT22;52812;48.960;9.108;2023-07-29T04:39:10;17.10;99.90
3086;DHT22;52812;48.960;9.108;2023-07-29T04:41:36;17.10;99.90
3086;DHT22;52812;48.960;9.108;2023-07-29T04:44:01;17.10;99.90
3086;DHT22;52812;48.960;9.108;2023-07-29T04:46:27;17.10;99.90
3086;DHT22;52812;48.960;9.108;2023-07-29T04:48:53;17.10;99.90
3086;DHT22;52812;48.960;9.108;2023-07-29T04:51:18;17.20;99.90
3086;DHT22;52812;48.960;9.108;2023-07-29T04:53:44;17.20;99.90
3086;DHT22;52812;48.960;9.108;2023-07-29T04:56:09;17.20;99.90
3086;DHT22;52812;48.960;9.108;2023-07-29T04:58:35;17.20;99.90
3086;DHT22;52812;48.960;9.108;2023-07-29T05:01:01;17.10;99.90
3086;DHT22;52812;48.960;9.108;2023-07-29T05:03:27;17.20;99.90
3086;DHT22;52812;48.960;9.108;2023-07-29T05:05:53;17.20;99.90
3086;DHT22;52812;48.960;9.108;2023-07-29T05:08:21;17.30;99.90
3086;DHT22;52812;48.960;9.108;2023-07-29T05:10:50;17.30;99.90
3086;DHT22;52812;48.960;9.108;2023-07-29T05:13:16;17.30;99.90
3086;DHT22;52812;48.960;9.108;2023-07-29T05:15:42;17.40;99.90
3086;DHT22;52812;48.960;9.108;2023-07-29T05:18:07;17.40;99.90
3086;DHT22;52812;48.960;9.108;2023-07-29T05:20:33;17.50;99.90
3086;DHT22;52812;48.960;9.108;2023-07-29T05:22:58;17.60;99.90
3086;DHT22;52812;48.960;9.108;2023-07-29T05:25:24;17.80;99.90
3086;DHT22;52812;48.960;9.108;2023-07-29T05:27:49;17.70;99.90
3086;DHT22;52812;48.960;9.108;2023-07-29T05:30:15;17.90;99.90
3086;DHT22;52812;48.960;9.108;2023-07-29T05:32:40;17.90;99.90
3086;DHT22;52812;48.960;9.108;2023-07-29T05:35:06;17.90;99.90
3086;DHT22;52812;48.960;9.108;2023-07-29T05:37:32;18.00;99.90
3086;DHT22;52812;48.960;9.108;2023-07-29T05:39:57;18.10;99.90
3086;DHT22;52812;48.960;9.108;2023-07-29T05:42:23;18.10;99.90
3086;DHT22;52812;48.960;9.108;2023-07-29T05:44:48;18.20;99.90
3086;DHT22;52812;48.960;9.108;2023-07-29T05:47:14;18.20;99.90
3086;DHT22;52812;48.960;9.108;2023-07-29T05:49:40;18.20;99.90
3086;DHT22;52812;48.960;9.108;2023-07-29T05:52:05;18.20;99.90
3086;DHT22;52812;48.960;9.108;2023-07-29T05:54:31;18.20;99.90
3086;DHT22;52812;48.960;9.108;2023-07-29T05:56:56;18.20;99.90
3086;DHT22;52812;48.960;9.108;2023-07-29T05:59:22;18.30;99.90
3086;DHT22;52812;48.960;9.108;2023-07-29T06:01:47;18.40;99.90
3086;DHT22;52812;48.960;9.108;2023-07-29T06:04:13;18.50;99.90
3086;DHT22;52812;48.960;9.108;2023-07-29T06:06:39;18.70;99.90
3086;DHT22;52812;48.960;9.108;2023-07-29T06:09:04;19.00;99.90
3086;DHT22;52812;48.960;9.108;2023-07-29T06:11:30;19.40;99.90
3086;DHT22;52812;48.960;9.108;2023-07-29T06:13:55;19.60;99.90
3086;DHT22;52812;48.960;9.108;2023-07-29T06:16:21;19.70;99.90
3086;DHT22;52812;48.960;9.108;2023-07-29T06:18:46;19.80;99.90
3086;DHT22;52812;48.960;9.108;2023-07-29T06:21:12;19.80;99.90
3086;DHT22;52812;48.960;9.108;2023-07-29T06:23:45;19.80;99.90
3086;DHT22;52812;48.960;9.108;2023-07-29T06:26:11;19.90;99.90
3086;DHT22;52812;48.960;9.108;2023-07-29T06:28:36;20.10;99.90
3086;DHT22;52812;48.960;9.108;2023-07-29T06:31:02;20.20;99.90
3086;DHT22;52812;48.960;9.108;2023-07-29T06:33:27;20.10;99.90
3086;DHT22;52812;48.960;9.108;2023-07-29T06:35:53;20.00;99.90
3086;DHT22;52812;48.960;9.108;2023-07-29T06:38:18;19.90;99.90
3086;DHT22;52812;48.960;9.108;2023-07-29T06:40:47;19.80;99.90
3086;DHT22;52812;48.960;9.108;2023-07-29T06:43:13;19.70;99.90
3086;DHT22;52812;48.960;9.108;2023-07-29T06:45:39;19.60;99.90
3086;DHT22;52812;48.960;9.108;2023-07-29T06:48:05;19.50;99.90
3086;DHT22;52812;48.960;9.108;2023-07-29T06:50:30;19.40;99.90
3086;DHT22;52812;48.960;9.108;2023-07-29T06:52:56;19.40;99.90
3086;DHT22;52812;48.960;9.108;2023-07-29T06:55:21;19.30;99.90
3086;DHT22;52812;48.960;9.108;2023-07-29T06:57:47;19.30;99.90
3086;DHT22;52812;48.960;9.108;2023-07-29T07:00:13;19.20;99.90
3086;DHT22;52812;48.960;9.108;2023-07-29T07:02:38;19.20;99.90
3086;DHT22;52812;48.960;9.108;2023-07-29T07:05:04;19.10;99.90
3086;DHT22;52812;48.960;9.108;2023-07-29T07:07:30;19.10;99.90
3086;DHT22;52812;48.960;9.108;2023-07-29T07:09:56;19.10;99.90
3086;DHT22;52812;48.960;9.108;2023-07-29T07:12:22;19.10;99.90
3086;DHT22;52812;48.960;9.108;2023-07-29T07:14:48;19.10;99.90
3086;DHT22;52812;48.960;9.108;2023-07-29T07:17:13;19.10;99.90
3086;DHT22;52812;48.960;9.108;2023-07-29T07:19:39;19.10;99.90
3086;DHT22;52812;48.960;9.108;2023-07-29T07:22:05;19.10;99.90
3086;DHT22;52812;48.960;9.108;2023-07-29T07:24:30;19.10;99.90
3086;DHT22;52812;48.960;9.108;2023-07-29T07:26:56;19.10;99.90
3086;DHT22;52812;48.960;9.108;2023-07-29T07:29:22;19.20;99.90
3086;DHT22;52812;48.960;9.108;2023-07-29T07:31:53;19.30;99.90
3086;DHT22;52812;48.960;9.108;2023-07-29T07:34:22;19.40;99.90
3086;DHT22;52812;48.960;9.108;2023-07-29T07:36:48;19.40;99.90
3086;DHT22;52812;48.960;9.108;2023-07-29T07:39:14;19.40;99.90
3086;DHT22;52812;48.960;9.108;2023-07-29T07:41:41;19.40;99.90
3086;DHT22;52812;48.960;9.108;2023-07-29T07:44:06;19.50;99.90
3086;DHT22;52812;48.960;9.108;2023-07-29T07:46:32;19.50;99.90
3086;DHT22;52812;48.960;9.108;2023-07-29T07:48:58;19.60;99.90
3086;DHT22;52812;48.960;9.108;2023-07-29T07:51:23;19.80;99.90
3086;DHT22;52812;48.960;9.108;2023-07-29T07:53:49;20.10;99.90
3086;DHT22;52812;48.960;9.108;2023-07-29T07:56:15;20.30;99.90
3086;DHT22;52812;48.960;9.108;2023-07-29T07:58:40;20.40;99.90
3086;DHT22;52812;48.960;9.108;2023-07-29T08:01:08;20.80;99.90
3086;DHT22;52812;48.960;9.108;2023-07-29T08:03:37;21.30;99.90
3086;DHT22;52812;48.960;9.108;2023-07-29T08:06:04;22.40;99.90
3086;DHT22;52812;48.960;9.108;2023-07-29T08:08:30;23.00;99.90
3086;DHT22;52812;48.960;9.108;2023-07-29T08:10:56;23.20;99.90
3086;DHT22;52812;48.960;9.108;2023-07-29T08:13:23;23.60;99.90
3086;DHT22;52812;48.960;9.108;2023-07-29T08:15:51;24.60;99.90
3086;DHT22;52812;48.960;9.108;2023-07-29T08:18:18;25.60;99.90
3086;DHT22;52812;48.960;9.108;2023-07-29T08:20:56;25.70;99.90
3086;DHT22;52812;48.960;9.108;2023-07-29T08:23:25;25.20;99.90
3086;DHT22;52812;48.960;9.108;2023-07-29T08:25:55;24.70;99.90
3086;DHT22;52812;48.960;9.108;2023-07-29T08:28:24;24.30;99.90
3086;DHT22;52812;48.960;9.108;2023-07-29T08:30:50;23.70;99.90
3086;DHT22;52812;48.960;9.108;2023-07-29T08:33:16;23.10;99.90
3086;DHT22;52812;48.960;9.108;2023-07-29T08:35:41;22.60;99.90
3086;DHT22;52812;48.960;9.108;2023-07-29T08:38:07;22.40;99.90
3086;DHT22;52812;48.960;9.108;2023-07-29T08:40:35;22.10;99.90
3086;DHT22;52812;48.960;9.108;2023-07-29T08:43:04;22.00;99.90
3086;DHT22;52812;48.960;9.108;2023-07-29T08:45:35;22.00;99.90
3086;DHT22;52812;48.960;9.108;2023-07-29T08:48:04;22.20;99.90
3086;DHT22;52812;48.960;9.108;2023-07-29T08:50:32;22.30;99.90
3086;DHT22;52812;48.960;9.108;2023-07-29T08:52:59;22.70;99.90
3086;DHT22;52812;48.960;9.108;2023-07-29T08:55:25;23.40;99.90
3086;DHT22;52812;48.960;9.108;2023-07-29T08:57:51;23.50;99.90
3086;DHT22;52812;48.960;9.108;2023-07-29T09:00:17;23.60;99.90
3086;DHT22;52812;48.960;9.108;2023-07-29T09:02:43;23.80;99.90
3086;DHT22;52812;48.960;9.108;2023-07-29T09:05:09;24.30;99.90
3086;DHT22;52812;48.960;9.108;2023-07-29T09:07:36;25.00;99.90
3086;DHT22;52812;48.960;9.108;2023-07-29T09:10:02;25.10;99.90
3086;DHT22;52812;48.960;9.108;2023-07-29T09:12:28;24.90;99.90
3086;DHT22;52812;48.960;9.108;2023-07-29T09:14:53;24.80;99.90
3086;DHT22;52812;48.960;9.108;2023-07-29T09:17:22;24.50;99.90
3086;DHT22;52812;48.960;9.108;2023-07-29T09:19:51;24.00;99.90
3086;DHT22;52812;48.960;9.108;2023-07-29T09:22:18;23.80;99.90
3086;DHT22;52812;48.960;9.108;2023-07-29T09:24:45;23.70;99.90
3086;DHT22;52812;48.960;9.108;2023-07-29T09:27:24;23.70;99.90
3086;DHT22;52812;48.960;9.108;2023-07-29T09:29:49;24.10;99.90
3086;DHT22;52812;48.960;9.108;2023-07-29T09:32:23;24.30;99.90
3086;DHT22;52812;48.960;9.108;2023-07-29T09:34:49;24.30;99.90
3086;DHT22;52812;48.960;9.108;2023-07-29T09:37:20;24.30;99.90
3086;DHT22;52812;48.960;9.108;2023-07-29T09:39:47;23.90;99.90
3086;DHT22;52812;48.960;9.108;2023-07-29T09:42:21;23.60;99.90
3086;DHT22;52812;48.960;9.108;2023-07-29T09:44:48;23.00;99.90
3086;DHT22;52812;48.960;9.108;2023-07-29T09:47:25;22.00;99.90
3086;DHT22;52812;48.960;9.108;2023-07-29T09:49:52;20.80;99.90
3086;DHT22;52812;48.960;9.108;2023-07-29T09:52:19;20.30;99.90
3086;DHT22;52812;48.960;9.108;2023-07-29T09:54:46;20.00;99.90
3086;DHT22;52812;48.960;9.108;2023-07-29T09:57:14;19.80;99.90
3086;DHT22;52812;48.960;9.108;2023-07-29T09:59:40;19.70;99.90
3086;DHT22;52812;48.960;9.108;2023-07-29T10:02:13;19.60;99.90
3086;DHT22;52812;48.960;9.108;2023-07-29T10:04:45;19.50;99.90
3086;DHT22;52812;48.960;9.108;2023-07-29T10:07:12;19.30;99.90
3086;DHT22;52812;48.960;9.108;2023-07-29T10:09:39;19.40;99.90
3086;DHT22;52812;48.960;9.108;2023-07-29T10:12:06;19.50;99.90
3086;DHT22;52812;48.960;9.108;2023-07-29T10:14:32;19.70;99.90
3086;DHT22;52812;48.960;9.108;2023-07-29T10:16:58;20.10;99.90
3086;DHT22;52812;48.960;9.108;2023-07-29T10:19:25;20.20;99.90
3086;DHT22;52812;48.960;9.108;2023-07-29T10:21:51;20.30;99.90
3086;DHT22;52812;48.960;9.108;2023-07-29T10:24:24;20.40;99.90
3086;DHT22;52812;48.960;9.108;2023-07-29T10:26:57;20.60;99.90
3086;DHT22;52812;48.960;9.108;2023-07-29T10:29:23;21.10;99.90
3086;DHT22;52812;48.960;9.108;2023-07-29T10:31:52;21.20;99.90
3086;DHT22;52812;48.960;9.108;2023-07-29T10:34:20;21.30;99.90
3086;DHT22;52812;48.960;9.108;2023-07-29T10:36:47;21.40;99.90
3086;DHT22;52812;48.960;9.108;2023-07-29T10:39:13;21.40;99.90
3086;DHT22;52812;48.960;9.108;2023-07-29T10:42:01;21.70;99.90
3086;DHT22;52812;48.960;9.108;2023-07-29T10:47:15;22.00;99.90
3086;DHT22;52812;48.960;9.108;2023-07-29T10:49:42;22.00;99.90
3086;DHT22;52812;48.960;9.108;2023-07-29T10:52:08;22.00;99.90
3086;DHT22;52812;48.960;9.108;2023-07-29T10:54:44;22.10;99.90
3086;DHT22;52812;48.960;9.108;2023-07-29T10:57:15;22.20;99.90
3086;DHT22;52812;48.960;9.108;2023-07-29T10:59:42;22.30;99.90
3086;DHT22;52812;48.960;9.108;2023-07-29T11:02:18;22.40;99.90
3086;DHT22;52812;48.960;9.108;2023-07-29T11:04:51;22.70;99.90
3086;DHT22;52812;48.960;9.108;2023-07-29T11:12:34;23.10;99.90
3086;DHT22;52812;48.960;9.108;2023-07-29T11:17:32;22.90;99.90
3086;DHT22;52812;48.960;9.108;2023-07-29T11:20:01;23.00;99.90
3086;DHT22;52812;48.960;9.108;2023-07-29T11:22:26;23.00;99.90
3086;DHT22;52812;48.960;9.108;2023-07-29T11:24:54;23.10;99.90
3086;DHT22;52812;48.960;9.108;2023-07-29T11:27:20;23.30;99.90
3086;DHT22;52812;48.960;9.108;2023-07-29T11:29:47;23.50;99.90
3086;DHT22;52812;48.960;9.108;2023-07-29T11:32:12;23.60;99.90
3086;DHT22;52812;48.960;9.108;2023-07-29T11:34:38;23.60;99.90
3086;DHT22;52812;48.960;9.108;2023-07-29T11:37:05;23.40;99.90
3086;DHT22;52812;48.960;9.108;2023-07-29T11:39:43;23.40;99.90
3086;DHT22;52812;48.960;9.108;2023-07-29T11:42:13;23.20;99.90
3086;DHT22;52812;48.960;9.108;2023-07-29T11:44:40;23.20;99.90
3086;DHT22;52812;48.960;9.108;2023-07-29T11:47:10;23.40;99.90
3086;DHT22;52812;48.960;9.108;2023-07-29T11:49:36;23.80;99.90
3086;DHT22;52812;48.960;9.108;2023-07-29T11:52:03;24.00;99.90
3086;DHT22;52812;48.960;9.108;2023-07-29T11:54:29;24.00;99.90
3086;DHT22;52812;48.960;9.108;2023-07-29T11:56:55;23.80;99.90
3086;DHT22;52812;48.960;9.108;2023-07-29T11:59:21;23.70;99.90
3086;DHT22;52812;48.960;9.108;2023-07-29T12:01:47;23.60;99.90
3086;DHT22;52812;48.960;9.108;2023-07-29T12:04:13;23.60;99.90
3086;DHT22;52812;48.960;9.108;2023-07-29T12:06:39;23.60;99.90
3086;DHT22;52812;48.960;9.108;2023-07-29T12:09:06;23.60;99.90
3086;DHT22;52812;48.960;9.108;2023-07-29T12:11:33;23.70;99.90
3086;DHT22;52812;48.960;9.108;2023-07-29T12:14:00;23.70;99.90
3086;DHT22;52812;48.960;9.108;2023-07-29T12:16:25;23.70;99.90
3086;DHT22;52812;48.960;9.108;2023-07-29T12:18:51;23.70;99.90
3086;DHT22;52812;48.960;9.108;2023-07-29T12:21:18;23.80;99.90
3086;DHT22;52812;48.960;9.108;2023-07-29T12:23:44;23.70;99.90
3086;DHT22;52812;48.960;9.108;2023-07-29T12:26:10;23.80;99.90
3086;DHT22;52812;48.960;9.108;2023-07-29T12:28:35;23.80;99.90
3086;DHT22;52812;48.960;9.108;2023-07-29T12:31:01;23.90;99.90
3086;DHT22;52812;48.960;9.108;2023-07-29T12:35:59;24.00;99.90
3086;DHT22;52812;48.960;9.108;2023-07-29T12:38:29;24.10;99.90
3086;DHT22;52812;48.960;9.108;2023-07-29T12:40:55;24.20;99.90
3086;DHT22;52812;48.960;9.108;2023-07-29T12:43:21;24.10;99.90
3086;DHT22;52812;48.960;9.108;2023-07-29T12:45:49;24.00;99.90
3086;DHT22;52812;48.960;9.108;2023-07-29T12:48:15;23.90;99.90
3086;DHT22;52812;48.960;9.108;2023-07-29T12:50:40;23.90;99.90
3086;DHT22;52812;48.960;9.108;2023-07-29T12:53:07;23.80;99.90
3086;DHT22;52812;48.960;9.108;2023-07-29T12:55:33;23.80;99.90
3086;DHT22;52812;48.960;9.108;2023-07-29T12:57:59;23.80;99.90
3086;DHT22;52812;48.960;9.108;2023-07-29T13:00:25;23.70;99.90
3086;DHT22;52812;48.960;9.108;2023-07-29T13:02:51;23.70;99.90
3086;DHT22;52812;48.960;9.108;2023-07-29T13:05:17;23.70;99.90
3086;DHT22;52812;48.960;9.108;2023-07-29T13:07:43;23.80;99.90
3086;DHT22;52812;48.960;9.108;2023-07-29T13:10:09;24.00;99.90
3086;DHT22;52812;48.960;9.108;2023-07-29T13:12:35;24.00;99.90
3086;DHT22;52812;48.960;9.108;2023-07-29T13:15:01;24.00;99.90
3086;DHT22;52812;48.960;9.108;2023-07-29T13:17:27;24.00;99.90
3086;DHT22;52812;48.960;9.108;2023-07-29T13:19:52;24.00;99.90
3086;DHT22;52812;48.960;9.108;2023-07-29T13:22:19;23.90;99.90
3086;DHT22;52812;48.960;9.108;2023-07-29T13:24:45;24.10;99.90
3086;DHT22;52812;48.960;9.108;2023-07-29T13:27:11;24.30;99.90
3086;DHT22;52812;48.960;9.108;2023-07-29T13:29:37;24.40;99.90
3086;DHT22;52812;48.960;9.108;2023-07-29T13:32:02;24.40;99.90
3086;DHT22;52812;48.960;9.108;2023-07-29T13:34:28;24.50;99.90
3086;DHT22;52812;48.960;9.108;2023-07-29T13:36:54;24.50;99.90
3086;DHT22;52812;48.960;9.108;2023-07-29T13:39:19;24.50;99.90
3086;DHT22;52812;48.960;9.108;2023-07-29T13:41:45;24.60;99.90
3086;DHT22;52812;48.960;9.108;2023-07-29T13:44:11;24.80;99.90
3086;DHT22;52812;48.960;9.108;2023-07-29T13:46:36;24.80;99.90
3086;DHT22;52812;48.960;9.108;2023-07-29T13:49:02;24.80;99.90
3086;DHT22;52812;48.960;9.108;2023-07-29T13:51:28;24.70;99.90
3086;DHT22;52812;48.960;9.108;2023-07-29T13:53:54;24.80;99.90
3086;DHT22;52812;48.960;9.108;2023-07-29T13:56:21;24.90;99.90
3086;DHT22;52812;48.960;9.108;2023-07-29T13:58:47;25.00;99.90
3086;DHT22;52812;48.960;9.108;2023-07-29T14:01:12;25.20;99.90
3086;DHT22;52812;48.960;9.108;2023-07-29T14:03:38;25.60;99.90
3086;DHT22;52812;48.960;9.108;2023-07-29T14:06:04;26.00;99.90
3086;DHT22;52812;48.960;9.108;2023-07-29T14:08:29;26.00;99.90
3086;DHT22;52812;48.960;9.108;2023-07-29T14:10:55;26.00;99.90
3086;DHT22;52812;48.960;9.108;2023-07-29T14:13:21;25.70;99.90
3086;DHT22;52812;48.960;9.108;2023-07-29T14:15:47;25.50;99.90
3086;DHT22;52812;48.960;9.108;2023-07-29T14:18:12;25.40;99.90
3086;DHT22;52812;48.960;9.108;2023-07-29T14:20:38;25.30;99.90
3086;DHT22;52812;48.960;9.108;2023-07-29T14:23:04;25.10;99.90
3086;DHT22;52812;48.960;9.108;2023-07-29T14:25:30;24.90;99.90
3086;DHT22;52812;48.960;9.108;2023-07-29T14:27:55;24.90;99.90
3086;DHT22;52812;48.960;9.108;2023-07-29T14:30:21;24.90;99.90
3086;DHT22;52812;48.960;9.108;2023-07-29T14:32:47;25.00;99.90
3086;DHT22;52812;48.960;9.108;2023-07-29T14:35:12;25.10;99.90
3086;DHT22;52812;48.960;9.108;2023-07-29T14:37:38;25.00;99.90
3086;DHT22;52812;48.960;9.108;2023-07-29T14:40:04;25.00;99.90
3086;DHT22;52812;48.960;9.108;2023-07-29T14:42:30;25.00;99.90
3086;DHT22;52812;48.960;9.108;2023-07-29T14:44:56;25.10;99.90
3086;DHT22;52812;48.960;9.108;2023-07-29T14:47:21;25.10;99.90
3086;DHT22;52812;48.960;9.108;2023-07-29T14:49:47;25.10;99.90
3086;DHT22;52812;48.960;9.108;2023-07-29T14:52:13;25.00;99.90
3086;DHT22;52812;48.960;9.108;2023-07-29T14:54:38;25.00;99.90
3086;DHT22;52812;48.960;9.108;2023-07-29T14:57:06;24.90;99.90
3086;DHT22;52812;48.960;9.108;2023-07-29T14:59:32;24.80;99.90
3086;DHT22;52812;48.960;9.108;2023-07-29T15:01:58;24.90;99.90
3086;DHT22;52812;48.960;9.108;2023-07-29T15:04:24;25.00;99.90
3086;DHT22;52812;48.960;9.108;2023-07-29T15:06:50;24.90;99.90
3086;DHT22;52812;48.960;9.108;2023-07-29T15:09:16;24.90;99.90
3086;DHT22;52812;48.960;9.108;2023-07-29T15:11:45;25.00;99.90
3086;DHT22;52812;48.960;9.108;2023-07-29T15:14:10;25.00;99.90
3086;DHT22;52812;48.960;9.108;2023-07-29T15:16:36;25.00;99.90
3086;DHT22;52812;48.960;9.108;2023-07-29T15:19:03;24.90;99.90
3086;DHT22;52812;48.960;9.108;2023-07-29T15:21:31;24.90;99.90
3086;DHT22;52812;48.960;9.108;2023-07-29T15:23:59;24.90;99.90
3086;DHT22;52812;48.960;9.108;2023-07-29T15:26:24;24.80;99.90
3086;DHT22;52812;48.960;9.108;2023-07-29T15:28:50;24.80;99.90
3086;DHT22;52812;48.960;9.108;2023-07-29T15:31:15;24.70;99.90
3086;DHT22;52812;48.960;9.108;2023-07-29T15:33:41;24.70;99.90
3086;DHT22;52812;48.960;9.108;2023-07-29T15:36:07;24.70;99.90
3086;DHT22;52812;48.960;9.108;2023-07-29T15:38:32;24.70;99.90
3086;DHT22;52812;48.960;9.108;2023-07-29T15:40:59;24.70;99.90
3086;DHT22;52812;48.960;9.108;2023-07-29T15:43:24;24.80;99.90
3086;DHT22;52812;48.960;9.108;2023-07-29T15:45:50;24.80;99.90
3086;DHT22;52812;48.960;9.108;2023-07-29T15:48:16;24.90;99.90
3086;DHT22;52812;48.960;9.108;2023-07-29T15:50:42;25.00;99.90
3086;DHT22;52812;48.960;9.108;2023-07-29T15:53:07;25.00;99.90
3086;DHT22;52812;48.960;9.108;2023-07-29T15:55:33;25.10;99.90
3086;DHT22;52812;48.960;9.108;2023-07-29T15:57:59;25.10;99.90